sensor_id;sensor_type;location;lat;lon;timestamp;pressure;altitude;pressure_sealevel;temperature
68939;BMP180;59064;45.294;11.816;2023-08-31T00:00:50;100730.00;;;17.00
68939;BMP180;59064;45.294;11.816;2023-08-31T00:03:19;100730.20;;;16.94
68939;BMP180;59064;45.294;11.816;2023-08-31T00:05:44;100730.00;;;16.90
68939;BMP180;59064;45.294;11.816;2023-08-31T00:08:10;100730.60;;;16.90
68939;BMP180;59064;45.294;11.816;2023-08-31T00:10:37;100732.60;;;16.90
68939;BMP180;59064;45.294;11.816;2023-08-31T00:13:04;100733.20;;;16.90
68939;BMP180;59064;45.294;11.816;2023-08-31T00:15:30;100729.00;;;16.90
68939;BMP180;59064;45.294;11.816;2023-08-31T00:17:59;100727.20;;;16.82
68939;BMP180;59064;45.294;11.816;2023-08-31T00:20:25;100732.40;;;16.80
68939;BMP180;59064;45.294;11.816;2023-08-31T00:22:52;100734.60;;;16.80
68939;BMP180;59064;45.294;11.816;2023-08-31T00:25:18;100738.60;;;16.80
68939;BMP180;59064;45.294;11.816;2023-08-31T00:27:43;100738.40;;;16.80
68939;BMP180;59064;45.294;11.816;2023-08-31T00:30:14;100733.20;;;16.70
68939;BMP180;59064;45.294;11.816;2023-08-31T00:32:41;100734.40;;;16.70
68939;BMP180;59064;45.294;11.816;2023-08-31T00:35:09;100730.60;;;16.62
68939;BMP180;59064;45.294;11.816;2023-08-31T00:37:34;100733.60;;;16.60
68939;BMP180;59064;45.294;11.816;2023-08-31T00:40:00;100735.60;;;16.60
68939;BMP180;59064;45.294;11.816;2023-08-31T00:42:26;100740.40;;;16.68
68939;BMP180;59064;45.294;11.816;2023-08-31T00:44:52;100737.40;;;16.62
68939;BMP180;59064;45.294;11.816;2023-08-31T00:47:19;100737.60;;;16.68
68939;BMP180;59064;45.294;11.816;2023-08-31T00:49:44;100740.20;;;16.62
68939;BMP180;59064;45.294;11.816;2023-08-31T00:52:10;100742.60;;;16.60
68939;BMP180;59064;45.294;11.816;2023-08-31T00:54:36;100742.40;;;16.60
68939;BMP180;59064;45.294;11.816;2023-08-31T00:57:02;100744.80;;;16.50
68939;BMP180;59064;45.294;11.816;2023-08-31T00:59:29;100739.00;;;16.50
68939;BMP180;59064;45.294;11.816;2023-08-31T01:04:59;100742.40;;;16.40
68939;BMP180;59064;45.294;11.816;2023-08-31T01:07:35;100744.40;;;16.40
68939;BMP180;59064;45.294;11.816;2023-08-31T01:10:25;100745.60;;;16.40
68939;BMP180;59064;45.294;11.816;2023-08-31T01:13:04;100750.40;;;16.50
68939;BMP180;59064;45.294;11.816;2023-08-31T01:15:38;100753.20;;;16.50
68939;BMP180;59064;45.294;11.816;2023-08-31T01:18:05;100755.20;;;16.50
68939;BMP180;59064;45.294;11.816;2023-08-31T01:23:54;100758.40;;;16.46
68939;BMP180;59064;45.294;11.816;2023-08-31T01:26:22;100764.40;;;16.40
68939;BMP180;59064;45.294;11.816;2023-08-31T01:28:52;100763.40;;;16.32
68939;BMP180;59064;45.294;11.816;2023-08-31T01:31:18;100766.40;;;16.20
68939;BMP180;59064;45.294;11.816;2023-08-31T01:33:47;100766.40;;;16.10
68939;BMP180;59064;45.294;11.816;2023-08-31T01:36:36;100767.20;;;15.94
68939;BMP180;59064;45.294;11.816;2023-08-31T01:41:38;100762.80;;;15.72
68939;BMP180;59064;45.294;11.816;2023-08-31T01:44:07;100766.60;;;15.70
68939;BMP180;59064;45.294;11.816;2023-08-31T01:46:34;100771.80;;;15.60
68939;BMP180;59064;45.294;11.816;2023-08-31T01:48:59;100770.20;;;15.50
68939;BMP180;59064;45.294;11.816;2023-08-31T01:51:25;100780.40;;;15.40
68939;BMP180;59064;45.294;11.816;2023-08-31T01:53:51;100782.00;;;15.40
68939;BMP180;59064;45.294;11.816;2023-08-31T01:56:17;100784.40;;;15.30
68939;BMP180;59064;45.294;11.816;2023-08-31T01:58:42;100784.00;;;15.30
68939;BMP180;59064;45.294;11.816;2023-08-31T02:01:08;100784.60;;;15.30
68939;BMP180;59064;45.294;11.816;2023-08-31T02:03:34;100786.20;;;15.30
68939;BMP180;59064;45.294;11.816;2023-08-31T02:05:59;100783.20;;;15.30
68939;BMP180;59064;45.294;11.816;2023-08-31T02:08:25;100789.80;;;15.26
68939;BMP180;59064;45.294;11.816;2023-08-31T02:10:50;100793.00;;;15.20
68939;BMP180;59064;45.294;11.816;2023-08-31T02:13:16;100795.00;;;15.20
68939;BMP180;59064;45.294;11.816;2023-08-31T02:15:43;100790.00;;;15.20
68939;BMP180;59064;45.294;11.816;2023-08-31T02:18:08;100793.20;;;15.20
68939;BMP180;59064;45.294;11.816;2023-08-31T02:20:34;100792.40;;;15.20
68939;BMP180;59064;45.294;11.816;2023-08-31T02:23:00;100793.00;;;15.20
68939;BMP180;59064;45.294;11.816;2023-08-31T02:25:25;100792.20;;;15.20
68939;BMP180;59064;45.294;11.816;2023-08-31T02:27:54;100800.80;;;15.20
68939;BMP180;59064;45.294;11.816;2023-08-31T02:30:20;100798.40;;;15.20
68939;BMP180;59064;45.294;11.816;2023-08-31T02:32:45;100799.80;;;15.24
68939;BMP180;59064;45.294;11.816;2023-08-31T02:35:12;100802.20;;;15.28
68939;BMP180;59064;45.294;11.816;2023-08-31T02:37:38;100804.20;;;15.30
68939;BMP180;59064;45.294;11.816;2023-08-31T02:40:05;100808.60;;;15.30
68939;BMP180;59064;45.294;11.816;2023-08-31T02:42:31;100807.60;;;15.30
68939;BMP180;59064;45.294;11.816;2023-08-31T02:44:57;100808.60;;;15.40
68939;BMP180;59064;45.294;11.816;2023-08-31T02:47:22;100812.60;;;15.40
68939;BMP180;59064;45.294;11.816;2023-08-31T02:49:48;100811.80;;;15.40
68939;BMP180;59064;45.294;11.816;2023-08-31T02:52:14;100811.80;;;15.40
68939;BMP180;59064;45.294;11.816;2023-08-31T02:54:39;100809.00;;;15.40
68939;BMP180;59064;45.294;11.816;2023-08-31T02:57:05;100809.60;;;15.50
68939;BMP180;59064;45.294;11.816;2023-08-31T02:59:31;100807.00;;;15.44
68939;BMP180;59064;45.294;11.816;2023-08-31T03:02:04;100805.00;;;15.50
68939;BMP180;59064;45.294;11.816;2023-08-31T03:04:30;100807.20;;;15.50
68939;BMP180;59064;45.294;11.816;2023-08-31T03:06:56;100810.20;;;15.52
68939;BMP180;59064;45.294;11.816;2023-08-31T03:09:22;100808.00;;;15.60
68939;BMP180;59064;45.294;11.816;2023-08-31T03:11:47;100809.00;;;15.60
68939;BMP180;59064;45.294;11.816;2023-08-31T03:14:13;100808.40;;;15.60
68939;BMP180;59064;45.294;11.816;2023-08-31T03:16:38;100809.60;;;15.60
68939;BMP180;59064;45.294;11.816;2023-08-31T03:19:04;100809.00;;;15.64
68939;BMP180;59064;45.294;11.816;2023-08-31T03:21:30;100807.80;;;15.66
68939;BMP180;59064;45.294;11.816;2023-08-31T03:23:56;100809.80;;;15.70
68939;BMP180;59064;45.294;11.816;2023-08-31T03:26:22;100815.40;;;15.70
68939;BMP180;59064;45.294;11.816;2023-08-31T03:28:47;100812.80;;;15.70
68939;BMP180;59064;45.294;11.816;2023-08-31T03:31:13;100816.20;;;15.70
68939;BMP180;59064;45.294;11.816;2023-08-31T03:33:39;100818.20;;;15.70
68939;BMP180;59064;45.294;11.816;2023-08-31T03:36:05;100825.00;;;15.70
68939;BMP180;59064;45.294;11.816;2023-08-31T03:38:33;100827.20;;;15.70
68939;BMP180;59064;45.294;11.816;2023-08-31T03:41:03;100828.60;;;15.70
68939;BMP180;59064;45.294;11.816;2023-08-31T03:43:29;100834.60;;;15.70
68939;BMP180;59064;45.294;11.816;2023-08-31T03:45:56;100835.80;;;15.70
68939;BMP180;59064;45.294;11.816;2023-08-31T03:48:24;100845.20;;;15.70
68939;BMP180;59064;45.294;11.816;2023-08-31T03:50:52;100845.80;;;15.62
68939;BMP180;59064;45.294;11.816;2023-08-31T03:53:18;100851.60;;;15.56
68939;BMP180;59064;45.294;11.816;2023-08-31T03:55:44;100847.80;;;15.50
68939;BMP180;59064;45.294;11.816;2023-08-31T03:58:09;100854.60;;;15.48
68939;BMP180;59064;45.294;11.816;2023-08-31T04:00:37;100853.80;;;15.40
68939;BMP180;59064;45.294;11.816;2023-08-31T04:03:03;100858.60;;;15.40
68939;BMP180;59064;45.294;11.816;2023-08-31T04:05:33;100860.20;;;15.40
68939;BMP180;59064;45.294;11.816;2023-08-31T04:08:00;100860.80;;;15.40
68939;BMP180;59064;45.294;11.816;2023-08-31T04:10:26;100864.40;;;15.40
68939;BMP180;59064;45.294;11.816;2023-08-31T04:12:52;100865.40;;;15.40
68939;BMP180;59064;45.294;11.816;2023-08-31T04:15:18;100868.80;;;15.50
68939;BMP180;59064;45.294;11.816;2023-08-31T04:17:44;100870.40;;;15.50
68939;BMP180;59064;45.294;11.816;2023-08-31T04:20:11;100875.60;;;15.50
68939;BMP180;59064;45.294;11.816;2023-08-31T04:22:36;100883.00;;;15.50
68939;BMP180;59064;45.294;11.816;2023-08-31T04:25:02;100887.20;;;15.50
68939;BMP180;59064;45.294;11.816;2023-08-31T04:27:28;100892.60;;;15.50
68939;BMP180;59064;45.294;11.816;2023-08-31T04:30:01;100887.80;;;15.50
68939;BMP180;59064;45.294;11.816;2023-08-31T04:32:27;100888.60;;;15.50
68939;BMP180;59064;45.294;11.816;2023-08-31T04:34:53;100890.00;;;15.50
68939;BMP180;59064;45.294;11.816;2023-08-31T04:37:19;100894.00;;;15.40
68939;BMP180;59064;45.294;11.816;2023-08-31T04:39:44;100900.40;;;15.50
68939;BMP180;59064;45.294;11.816;2023-08-31T04:42:10;100902.20;;;15.50
68939;BMP180;59064;45.294;11.816;2023-08-31T04:44:35;100906.80;;;15.52
68939;BMP180;59064;45.294;11.816;2023-08-31T04:47:01;100912.80;;;15.60
68939;BMP180;59064;45.294;11.816;2023-08-31T04:49:27;100909.20;;;15.60
68939;BMP180;59064;45.294;11.816;2023-08-31T04:51:52;100908.40;;;15.60
68939;BMP180;59064;45.294;11.816;2023-08-31T04:54:18;100911.40;;;15.60
68939;BMP180;59064;45.294;11.816;2023-08-31T04:56:44;100916.60;;;15.70
68939;BMP180;59064;45.294;11.816;2023-08-31T04:59:10;100921.20;;;15.70
68939;BMP180;59064;45.294;11.816;2023-08-31T05:01:35;100928.00;;;15.80
68939;BMP180;59064;45.294;11.816;2023-08-31T05:04:05;100936.40;;;15.90
68939;BMP180;59064;45.294;11.816;2023-08-31T05:06:31;100935.60;;;15.94
68939;BMP180;59064;45.294;11.816;2023-08-31T05:08:57;100933.80;;;16.08
68939;BMP180;59064;45.294;11.816;2023-08-31T05:11:23;100929.60;;;16.20
68939;BMP180;59064;45.294;11.816;2023-08-31T05:13:49;100936.00;;;16.30
68939;BMP180;59064;45.294;11.816;2023-08-31T05:16:14;100938.80;;;16.42
68939;BMP180;59064;45.294;11.816;2023-08-31T05:18:40;100947.60;;;16.50
68939;BMP180;59064;45.294;11.816;2023-08-31T05:21:06;100948.60;;;16.60
68939;BMP180;59064;45.294;11.816;2023-08-31T05:23:32;100949.20;;;16.70
68939;BMP180;59064;45.294;11.816;2023-08-31T05:25:58;100955.60;;;16.80
68939;BMP180;59064;45.294;11.816;2023-08-31T05:28:24;100953.00;;;16.90
68939;BMP180;59064;45.294;11.816;2023-08-31T05:30:51;100957.60;;;17.02
68939;BMP180;59064;45.294;11.816;2023-08-31T05:33:18;100954.60;;;17.14
68939;BMP180;59064;45.294;11.816;2023-08-31T05:35:44;100964.60;;;17.28
68939;BMP180;59064;45.294;11.816;2023-08-31T05:38:11;100970.80;;;17.40
68939;BMP180;59064;45.294;11.816;2023-08-31T05:40:38;100972.20;;;17.50
68939;BMP180;59064;45.294;11.816;2023-08-31T05:43:04;100978.60;;;17.52
68939;BMP180;59064;45.294;11.816;2023-08-31T05:45:34;100982.80;;;17.60
68939;BMP180;59064;45.294;11.816;2023-08-31T05:48:00;100983.00;;;17.60
68939;BMP180;59064;45.294;11.816;2023-08-31T05:50:27;100981.80;;;17.60
68939;BMP180;59064;45.294;11.816;2023-08-31T05:52:54;100982.60;;;17.60
68939;BMP180;59064;45.294;11.816;2023-08-31T05:55:20;100981.80;;;17.62
68939;BMP180;59064;45.294;11.816;2023-08-31T05:57:45;100984.80;;;17.70
68939;BMP180;59064;45.294;11.816;2023-08-31T06:00:11;100988.20;;;17.70
68939;BMP180;59064;45.294;11.816;2023-08-31T06:02:37;100987.20;;;17.80
68939;BMP180;59064;45.294;11.816;2023-08-31T06:05:03;100985.80;;;17.90
68939;BMP180;59064;45.294;11.816;2023-08-31T06:07:29;100993.00;;;18.00
68939;BMP180;59064;45.294;11.816;2023-08-31T06:09:56;100993.80;;;18.14
68939;BMP180;59064;45.294;11.816;2023-08-31T06:12:22;100998.40;;;18.30
68939;BMP180;59064;45.294;11.816;2023-08-31T06:14:47;101002.20;;;18.52
68939;BMP180;59064;45.294;11.816;2023-08-31T06:17:13;101005.40;;;18.70
68939;BMP180;59064;45.294;11.816;2023-08-31T06:19:40;101006.80;;;18.90
68939;BMP180;59064;45.294;11.816;2023-08-31T06:22:07;101004.80;;;19.10
68939;BMP180;59064;45.294;11.816;2023-08-31T06:24:32;101008.20;;;19.20
68939;BMP180;59064;45.294;11.816;2023-08-31T06:26:59;101008.60;;;19.30
68939;BMP180;59064;45.294;11.816;2023-08-31T06:29:25;101014.60;;;19.40
68939;BMP180;59064;45.294;11.816;2023-08-31T06:31:51;101013.20;;;19.50
68939;BMP180;59064;45.294;11.816;2023-08-31T06:34:17;101018.40;;;19.60
68939;BMP180;59064;45.294;11.816;2023-08-31T06:36:42;101022.60;;;19.70
68939;BMP180;59064;45.294;11.816;2023-08-31T06:39:08;101026.20;;;19.80
68939;BMP180;59064;45.294;11.816;2023-08-31T06:41:34;101028.00;;;19.80
68939;BMP180;59064;45.294;11.816;2023-08-31T06:44:00;101031.60;;;19.90
68939;BMP180;59064;45.294;11.816;2023-08-31T06:46:25;101035.80;;;19.90
68939;BMP180;59064;45.294;11.816;2023-08-31T06:48:51;101042.00;;;19.92
68939;BMP180;59064;45.294;11.816;2023-08-31T06:51:17;101045.00;;;20.00
68939;BMP180;59064;45.294;11.816;2023-08-31T06:53:43;101049.00;;;20.10
68939;BMP180;59064;45.294;11.816;2023-08-31T06:56:09;101045.20;;;20.10
68939;BMP180;59064;45.294;11.816;2023-08-31T06:58:35;101046.60;;;20.10
68939;BMP180;59064;45.294;11.816;2023-08-31T07:01:05;101051.00;;;20.10
68939;BMP180;59064;45.294;11.816;2023-08-31T07:03:30;101052.20;;;20.20
68939;BMP180;59064;45.294;11.816;2023-08-31T07:05:56;101057.20;;;20.20
68939;BMP180;59064;45.294;11.816;2023-08-31T07:08:22;101058.40;;;20.10
68939;BMP180;59064;45.294;11.816;2023-08-31T07:10:50;101055.40;;;20.10
68939;BMP180;59064;45.294;11.816;2023-08-31T07:13:16;101057.80;;;20.10
68939;BMP180;59064;45.294;11.816;2023-08-31T07:15:41;101063.00;;;20.20
68939;BMP180;59064;45.294;11.816;2023-08-31T07:18:07;101066.60;;;20.30
68939;BMP180;59064;45.294;11.816;2023-08-31T07:20:33;101066.00;;;20.38
68939;BMP180;59064;45.294;11.816;2023-08-31T07:22:59;101069.20;;;20.40
68939;BMP180;59064;45.294;11.816;2023-08-31T07:25:25;101077.80;;;20.50
68939;BMP180;59064;45.294;11.816;2023-08-31T07:27:50;101076.40;;;20.60
68939;BMP180;59064;45.294;11.816;2023-08-31T07:30:17;101083.80;;;20.76
68939;BMP180;59064;45.294;11.816;2023-08-31T07:32:42;101087.40;;;20.90
68939;BMP180;59064;45.294;11.816;2023-08-31T07:35:08;101094.40;;;21.08
68939;BMP180;59064;45.294;11.816;2023-08-31T07:37:34;101101.20;;;21.28
68939;BMP180;59064;45.294;11.816;2023-08-31T07:40:01;101107.20;;;21.40
68939;BMP180;59064;45.294;11.816;2023-08-31T07:42:26;101108.40;;;21.60
68939;BMP180;59064;45.294;11.816;2023-08-31T07:44:52;101111.20;;;21.80
68939;BMP180;59064;45.294;11.816;2023-08-31T07:47:17;101108.40;;;22.04
68939;BMP180;59064;45.294;11.816;2023-08-31T07:49:43;101113.20;;;22.34
68939;BMP180;59064;45.294;11.816;2023-08-31T07:52:09;101114.60;;;22.50
68939;BMP180;59064;45.294;11.816;2023-08-31T07:54:35;101125.80;;;22.50
68939;BMP180;59064;45.294;11.816;2023-08-31T07:57:01;101126.40;;;22.60
68939;BMP180;59064;45.294;11.816;2023-08-31T07:59:26;101131.00;;;22.72
68939;BMP180;59064;45.294;11.816;2023-08-31T08:01:53;101135.60;;;22.80
68939;BMP180;59064;45.294;11.816;2023-08-31T08:04:18;101139.40;;;22.80
68939;BMP180;59064;45.294;11.816;2023-08-31T08:06:45;101139.60;;;22.86
68939;BMP180;59064;45.294;11.816;2023-08-31T08:09:11;101140.00;;;22.90
68939;BMP180;59064;45.294;11.816;2023-08-31T08:11:37;101144.20;;;23.06
68939;BMP180;59064;45.294;11.816;2023-08-31T08:14:03;101146.80;;;23.10
68939;BMP180;59064;45.294;11.816;2023-08-31T08:16:29;101154.60;;;23.30
68939;BMP180;59064;45.294;11.816;2023-08-31T08:18:54;101154.40;;;23.50
68939;BMP180;59064;45.294;11.816;2023-08-31T08:21:20;101153.60;;;23.70
68939;BMP180;59064;45.294;11.816;2023-08-31T08:23:46;101162.80;;;23.78
68939;BMP180;59064;45.294;11.816;2023-08-31T08:26:11;101158.00;;;23.70
68939;BMP180;59064;45.294;11.816;2023-08-31T08:28:37;101161.80;;;23.60
68939;BMP180;59064;45.294;11.816;2023-08-31T08:31:03;101164.80;;;23.60
68939;BMP180;59064;45.294;11.816;2023-08-31T08:33:30;101163.20;;;23.70
68939;BMP180;59064;45.294;11.816;2023-08-31T08:35:57;101164.40;;;23.78
68939;BMP180;59064;45.294;11.816;2023-08-31T08:38:23;101162.40;;;23.80
68939;BMP180;59064;45.294;11.816;2023-08-31T08:40:48;101163.60;;;24.08
68939;BMP180;59064;45.294;11.816;2023-08-31T08:43:14;101164.80;;;24.26
68939;BMP180;59064;45.294;11.816;2023-08-31T08:45:40;101166.60;;;24.40
68939;BMP180;59064;45.294;11.816;2023-08-31T08:48:08;101167.00;;;24.46
68939;BMP180;59064;45.294;11.816;2023-08-31T08:50:35;101169.60;;;24.60
68939;BMP180;59064;45.294;11.816;2023-08-31T08:53:03;101173.00;;;24.60
68939;BMP180;59064;45.294;11.816;2023-08-31T08:55:29;101170.80;;;24.70
68939;BMP180;59064;45.294;11.816;2023-08-31T08:57:57;101173.20;;;24.80
68939;BMP180;59064;45.294;11.816;2023-08-31T09:00:23;101175.60;;;24.80
68939;BMP180;59064;45.294;11.816;2023-08-31T09:02:49;101176.80;;;24.90
68939;BMP180;59064;45.294;11.816;2023-08-31T09:05:14;101183.00;;;25.18
68939;BMP180;59064;45.294;11.816;2023-08-31T09:08:26;101182.40;;;25.48
68939;BMP180;59064;45.294;11.816;2023-08-31T09:10:55;101186.60;;;25.90
68939;BMP180;59064;45.294;11.816;2023-08-31T09:13:27;101187.20;;;25.82
68939;BMP180;59064;45.294;11.816;2023-08-31T09:15:55;101187.20;;;25.90
68939;BMP180;59064;45.294;11.816;2023-08-31T09:18:26;101188.20;;;26.00
68939;BMP180;59064;45.294;11.816;2023-08-31T09:20:52;101191.60;;;26.14
68939;BMP180;59064;45.294;11.816;2023-08-31T09:23:19;101195.00;;;26.20
68939;BMP180;59064;45.294;11.816;2023-08-31T09:25:48;101196.80;;;26.30
68939;BMP180;59064;45.294;11.816;2023-08-31T09:28:16;101196.00;;;26.30
68939;BMP180;59064;45.294;11.816;2023-08-31T09:30:49;101194.40;;;26.56
68939;BMP180;59064;45.294;11.816;2023-08-31T09:33:17;101198.00;;;26.76
68939;BMP180;59064;45.294;11.816;2023-08-31T09:35:53;101198.20;;;26.90
68939;BMP180;59064;45.294;11.816;2023-08-31T09:38:20;101196.80;;;27.00
68939;BMP180;59064;45.294;11.816;2023-08-31T09:40:46;101195.20;;;27.10
68939;BMP180;59064;45.294;11.816;2023-08-31T09:43:11;101192.00;;;27.30
68939;BMP180;59064;45.294;11.816;2023-08-31T09:45:38;101199.80;;;27.44
68939;BMP180;59064;45.294;11.816;2023-08-31T09:48:04;101195.80;;;27.20
68939;BMP180;59064;45.294;11.816;2023-08-31T09:50:33;101196.40;;;26.90
68939;BMP180;59064;45.294;11.816;2023-08-31T09:53:04;101197.60;;;26.70
68939;BMP180;59064;45.294;11.816;2023-08-31T09:55:34;101201.60;;;26.90
68939;BMP180;59064;45.294;11.816;2023-08-31T09:58:02;101200.80;;;26.90
68939;BMP180;59064;45.294;11.816;2023-08-31T10:00:30;101204.20;;;27.00
68939;BMP180;59064;45.294;11.816;2023-08-31T10:03:01;101197.60;;;27.00
68939;BMP180;59064;45.294;11.816;2023-08-31T10:05:28;101207.00;;;27.10
68939;BMP180;59064;45.294;11.816;2023-08-31T10:07:54;101204.60;;;26.98
68939;BMP180;59064;45.294;11.816;2023-08-31T10:10:21;101202.20;;;27.00
68939;BMP180;59064;45.294;11.816;2023-08-31T10:12:48;101213.40;;;27.40
68939;BMP180;59064;45.294;11.816;2023-08-31T10:15:17;101214.60;;;27.30
68939;BMP180;59064;45.294;11.816;2023-08-31T10:17:43;101216.80;;;27.10
68939;BMP180;59064;45.294;11.816;2023-08-31T10:20:12;101212.00;;;27.00
68939;BMP180;59064;45.294;11.816;2023-08-31T10:22:38;101215.00;;;27.20
68939;BMP180;59064;45.294;11.816;2023-08-31T10:25:06;101219.00;;;26.96
68939;BMP180;59064;45.294;11.816;2023-08-31T10:27:40;101221.20;;;26.60
68939;BMP180;59064;45.294;11.816;2023-08-31T10:38:30;101210.20;;;26.20
68939;BMP180;59064;45.294;11.816;2023-08-31T10:41:17;101213.00;;;26.14
68939;BMP180;59064;45.294;11.816;2023-08-31T10:43:55;101220.80;;;26.30
68939;BMP180;59064;45.294;11.816;2023-08-31T10:46:33;101217.60;;;26.46
68939;BMP180;59064;45.294;11.816;2023-08-31T10:51:36;101216.00;;;26.00
68939;BMP180;59064;45.294;11.816;2023-08-31T10:56:31;101213.80;;;25.94
68939;BMP180;59064;45.294;11.816;2023-08-31T10:58:59;101215.40;;;26.28
68939;BMP180;59064;45.294;11.816;2023-08-31T11:01:57;101217.60;;;26.20
68939;BMP180;59064;45.294;11.816;2023-08-31T11:04:27;101219.80;;;26.20
68939;BMP180;59064;45.294;11.816;2023-08-31T11:07:17;101216.40;;;26.20
68939;BMP180;59064;45.294;11.816;2023-08-31T11:09:44;101216.00;;;26.30
68939;BMP180;59064;45.294;11.816;2023-08-31T11:12:11;101210.40;;;26.12
68939;BMP180;59064;45.294;11.816;2023-08-31T11:14:37;101210.20;;;26.36
68939;BMP180;59064;45.294;11.816;2023-08-31T11:17:04;101214.60;;;26.52
68939;BMP180;59064;45.294;11.816;2023-08-31T11:19:31;101214.80;;;27.00
68939;BMP180;59064;45.294;11.816;2023-08-31T11:22:00;101215.20;;;27.10
68939;BMP180;59064;45.294;11.816;2023-08-31T11:24:32;101206.80;;;27.20
68939;BMP180;59064;45.294;11.816;2023-08-31T11:26:58;101212.20;;;27.20
68939;BMP180;59064;45.294;11.816;2023-08-31T11:29:24;101214.00;;;27.52
68939;BMP180;59064;45.294;11.816;2023-08-31T11:31:50;101213.00;;;27.98
68939;BMP180;59064;45.294;11.816;2023-08-31T11:34:17;101217.40;;;28.50
68939;BMP180;59064;45.294;11.816;2023-08-31T11:36:46;101217.20;;;28.46
68939;BMP180;59064;45.294;11.816;2023-08-31T11:39:17;101225.00;;;28.20
68939;BMP180;59064;45.294;11.816;2023-08-31T11:41:43;101223.00;;;28.00
68939;BMP180;59064;45.294;11.816;2023-08-31T11:44:14;101219.20;;;28.38
68939;BMP180;59064;45.294;11.816;2023-08-31T11:46:46;101227.40;;;28.60
68939;BMP180;59064;45.294;11.816;2023-08-31T11:49:17;101219.60;;;28.40
68939;BMP180;59064;45.294;11.816;2023-08-31T11:51:44;101225.40;;;28.50
68939;BMP180;59064;45.294;11.816;2023-08-31T11:54:11;101228.80;;;28.40
68939;BMP180;59064;45.294;11.816;2023-08-31T11:56:45;101226.80;;;28.10
68939;BMP180;59064;45.294;11.816;2023-08-31T11:59:20;101225.20;;;28.10
68939;BMP180;59064;45.294;11.816;2023-08-31T12:01:47;101219.40;;;28.06
68939;BMP180;59064;45.294;11.816;2023-08-31T12:04:19;101215.60;;;28.08
68939;BMP180;59064;45.294;11.816;2023-08-31T12:06:50;101216.80;;;28.64
68939;BMP180;59064;45.294;11.816;2023-08-31T12:09:16;101218.60;;;29.36
68939;BMP180;59064;45.294;11.816;2023-08-31T12:11:49;101217.00;;;30.04
68939;BMP180;59064;45.294;11.816;2023-08-31T12:14:26;101214.00;;;30.72
68939;BMP180;59064;45.294;11.816;2023-08-31T12:17:00;101211.20;;;30.70
68939;BMP180;59064;45.294;11.816;2023-08-31T12:19:30;101210.20;;;30.62
68939;BMP180;59064;45.294;11.816;2023-08-31T12:21:57;101220.60;;;30.16
68939;BMP180;59064;45.294;11.816;2023-08-31T12:24:23;101218.60;;;29.98
68939;BMP180;59064;45.294;11.816;2023-08-31T12:26:50;101217.80;;;30.16
68939;BMP180;59064;45.294;11.816;2023-08-31T12:29:16;101218.40;;;30.30
68939;BMP180;59064;45.294;11.816;2023-08-31T12:31:42;101208.80;;;30.10
68939;BMP180;59064;45.294;11.816;2023-08-31T12:34:09;101205.80;;;30.50
68939;BMP180;59064;45.294;11.816;2023-08-31T12:36:36;101211.80;;;30.30
68939;BMP180;59064;45.294;11.816;2023-08-31T12:39:07;101215.00;;;29.76
68939;BMP180;59064;45.294;11.816;2023-08-31T12:41:36;101215.20;;;29.50
68939;BMP180;59064;45.294;11.816;2023-08-31T12:44:03;101208.20;;;29.26
68939;BMP180;59064;45.294;11.816;2023-08-31T12:46:30;101210.20;;;28.92
68939;BMP180;59064;45.294;11.816;2023-08-31T12:48:56;101208.80;;;28.90
68939;BMP180;59064;45.294;11.816;2023-08-31T12:51:22;101202.40;;;29.38
68939;BMP180;59064;45.294;11.816;2023-08-31T12:53:47;101203.60;;;29.70
68939;BMP180;59064;45.294;11.816;2023-08-31T12:56:14;101200.20;;;30.40
68939;BMP180;59064;45.294;11.816;2023-08-31T12:58:50;101198.00;;;30.70
68939;BMP180;59064;45.294;11.816;2023-08-31T13:01:17;101199.40;;;30.70
68939;BMP180;59064;45.294;11.816;2023-08-31T13:03:43;101194.40;;;30.40
68939;BMP180;59064;45.294;11.816;2023-08-31T13:06:09;101193.00;;;30.30
68939;BMP180;59064;45.294;11.816;2023-08-31T13:08:34;101199.20;;;30.12
68939;BMP180;59064;45.294;11.816;2023-08-31T13:11:00;101196.80;;;29.90
68939;BMP180;59064;45.294;11.816;2023-08-31T13:13:26;101186.20;;;30.10
68939;BMP180;59064;45.294;11.816;2023-08-31T13:15:51;101189.00;;;30.30
68939;BMP180;59064;45.294;11.816;2023-08-31T13:18:17;101190.20;;;30.84
68939;BMP180;59064;45.294;11.816;2023-08-31T13:20:53;101192.00;;;31.36
68939;BMP180;59064;45.294;11.816;2023-08-31T13:23:20;101188.20;;;31.64
68939;BMP180;59064;45.294;11.816;2023-08-31T13:25:47;101189.60;;;31.60
68939;BMP180;59064;45.294;11.816;2023-08-31T13:28:13;101192.20;;;31.84
68939;BMP180;59064;45.294;11.816;2023-08-31T13:30:39;101191.60;;;32.30
68939;BMP180;59064;45.294;11.816;2023-08-31T13:33:06;101188.20;;;32.50
68939;BMP180;59064;45.294;11.816;2023-08-31T13:35:33;101195.20;;;32.60
68939;BMP180;59064;45.294;11.816;2023-08-31T13:37:59;101185.80;;;32.48
68939;BMP180;59064;45.294;11.816;2023-08-31T13:40:24;101189.60;;;32.40
68939;BMP180;59064;45.294;11.816;2023-08-31T13:42:55;101188.00;;;33.04
68939;BMP180;59064;45.294;11.816;2023-08-31T13:45:27;101186.60;;;33.44
68939;BMP180;59064;45.294;11.816;2023-08-31T13:47:53;101189.80;;;33.70
68939;BMP180;59064;45.294;11.816;2023-08-31T13:50:19;101186.20;;;34.00
68939;BMP180;59064;45.294;11.816;2023-08-31T13:52:45;101191.60;;;34.48
68939;BMP180;59064;45.294;11.816;2023-08-31T13:55:11;101193.40;;;35.02
68939;BMP180;59064;45.294;11.816;2023-08-31T13:57:41;101191.80;;;35.64
68939;BMP180;59064;45.294;11.816;2023-08-31T14:00:08;101192.60;;;35.80
68939;BMP180;59064;45.294;11.816;2023-08-31T14:02:36;101197.20;;;35.74
68939;BMP180;59064;45.294;11.816;2023-08-31T14:05:03;101193.20;;;35.46
68939;BMP180;59064;45.294;11.816;2023-08-31T14:07:29;101192.20;;;35.32